sensor_id;sensor_type;location;lat;lon;timestamp;pressure;altitude;pressure_sealevel;temperature;humidity
45050;BME280;61798;48.048;-1.928;2023-09-18T00:00:24;99913.38;;;17.91;100.00
45050;BME280;61798;48.048;-1.928;2023-09-18T00:02:30;99914.38;;;17.84;100.00
45050;BME280;61798;48.048;-1.928;2023-09-18T00:04:38;99931.84;;;17.99;100.00
45050;BME280;61798;48.048;-1.928;2023-09-18T00:06:45;99932.50;;;18.17;100.00
45050;BME280;61798;48.048;-1.928;2023-09-18T00:08:52;99916.22;;;18.17;100.00
45050;BME280;61798;48.048;-1.928;2023-09-18T00:11:00;99922.47;;;18.17;100.00
45050;BME280;61798;48.048;-1.928;2023-09-18T00:13:08;99924.31;;;18.12;100.00
45050;BME280;61798;48.048;-1.928;2023-09-18T00:15:15;99931.88;;;18.04;100.00
45050;BME280;61798;48.048;-1.928;2023-09-18T00:17:22;99894.31;;;17.80;100.00
45050;BME280;61798;48.048;-1.928;2023-09-18T00:19:30;99915.59;;;17.99;100.00
45050;BME280;61798;48.048;-1.928;2023-09-18T00:21:39;99904.94;;;17.92;100.00
45050;BME280;61798;48.048;-1.928;2023-09-18T00:23:46;99903.88;;;17.93;100.00
45050;BME280;61798;48.048;-1.928;2023-09-18T00:25:53;99907.13;;;17.90;100.00
45050;BME280;61798;48.048;-1.928;2023-09-18T00:28:00;99894.00;;;17.71;100.00
45050;BME280;61798;48.048;-1.928;2023-09-18T00:30:07;99889.22;;;17.89;100.00
45050;BME280;61798;48.048;-1.928;2023-09-18T00:32:14;99899.28;;;17.94;100.00
45050;BME280;61798;48.048;-1.928;2023-09-18T00:34:21;99884.03;;;17.82;100.00
45050;BME280;61798;48.048;-1.928;2023-09-18T00:36:28;99903.00;;;17.88;100.00
45050;BME280;61798;48.048;-1.928;2023-09-18T00:38:35;99904.94;;;17.92;100.00
45050;BME280;61798;48.048;-1.928;2023-09-18T00:40:41;99904.41;;;17.90;100.00
45050;BME280;61798;48.048;-1.928;2023-09-18T00:42:47;99925.13;;;18.07;100.00
45050;BME280;61798;48.048;-1.928;2023-09-18T00:44:54;99885.72;;;17.94;100.00
45050;BME280;61798;48.048;-1.928;2023-09-18T00:47:00;99912.09;;;18.09;100.00
45050;BME280;61798;48.048;-1.928;2023-09-18T00:49:08;99910.66;;;17.96;100.00
45050;BME280;61798;48.048;-1.928;2023-09-18T00:51:16;99920.50;;;18.07;100.00
45050;BME280;61798;48.048;-1.928;2023-09-18T00:53:24;99909.59;;;17.97;100.00
45050;BME280;61798;48.048;-1.928;2023-09-18T00:55:32;99923.44;;;18.01;100.00
45050;BME280;61798;48.048;-1.928;2023-09-18T00:57:40;99876.44;;;17.84;100.00
45050;BME280;61798;48.048;-1.928;2023-09-18T00:59:48;99925.41;;;18.11;100.00
45050;BME280;61798;48.048;-1.928;2023-09-18T01:01:55;99925.94;;;18.13;100.00
45050;BME280;61798;48.048;-1.928;2023-09-18T01:04:03;99920.53;;;18.13;100.00
45050;BME280;61798;48.048;-1.928;2023-09-18T01:06:10;99893.38;;;18.07;100.00
45050;BME280;61798;48.048;-1.928;2023-09-18T01:08:17;99920.56;;;18.18;100.00
45050;BME280;61798;48.048;-1.928;2023-09-18T01:10:27;99919.41;;;18.08;100.00
45050;BME280;61798;48.048;-1.928;2023-09-18T01:12:55;99891.94;;;17.89;100.00
45050;BME280;61798;48.048;-1.928;2023-09-18T01:15:30;99921.84;;;18.05;100.00
45050;BME280;61798;48.048;-1.928;2023-09-18T01:17:40;99919.41;;;18.08;100.00
45050;BME280;61798;48.048;-1.928;2023-09-18T01:19:47;99916.16;;;18.06;100.00
45050;BME280;61798;48.048;-1.928;2023-09-18T01:21:55;99918.28;;;17.99;100.00
45050;BME280;61798;48.048;-1.928;2023-09-18T01:24:02;99901.13;;;17.88;100.00
45050;BME280;61798;48.048;-1.928;2023-09-18T01:26:09;99904.16;;;17.97;100.00
45050;BME280;61798;48.048;-1.928;2023-09-18T01:28:17;99924.88;;;18.14;100.00
45050;BME280;61798;48.048;-1.928;2023-09-18T01:30:23;99928.41;;;18.14;100.00
45050;BME280;61798;48.048;-1.928;2023-09-18T01:32:32;99929.53;;;18.18;100.00
45050;BME280;61798;48.048;-1.928;2023-09-18T01:34:41;99910.75;;;18.12;100.00
45050;BME280;61798;48.048;-1.928;2023-09-18T01:36:49;99906.72;;;18.14;100.00
45050;BME280;61798;48.048;-1.928;2023-09-18T01:38:58;99893.09;;;18.04;100.00
45050;BME280;61798;48.048;-1.928;2023-09-18T01:41:04;99914.03;;;18.14;100.00
45050;BME280;61798;48.048;-1.928;2023-09-18T01:43:10;99914.03;;;18.14;100.00
45050;BME280;61798;48.048;-1.928;2023-09-18T01:45:17;99918.59;;;18.08;100.00
45050;BME280;61798;48.048;-1.928;2023-09-18T01:47:24;99875.56;;;17.73;100.00
45050;BME280;61798;48.048;-1.928;2023-09-18T01:49:36;99895.69;;;17.83;100.00
45050;BME280;61798;48.048;-1.928;2023-09-18T01:51:43;99905.03;;;18.03;100.00
45050;BME280;61798;48.048;-1.928;2023-09-18T01:53:52;99903.97;;;18.09;100.00
45050;BME280;61798;48.048;-1.928;2023-09-18T01:56:00;99890.38;;;17.99;100.00
45050;BME280;61798;48.048;-1.928;2023-09-18T01:58:07;99883.00;;;17.94;100.00
45050;BME280;61798;48.048;-1.928;2023-09-18T02:00:13;99900.13;;;18.00;100.00
45050;BME280;61798;48.048;-1.928;2023-09-18T02:02:20;99896.56;;;17.94;100.00
45050;BME280;61798;48.048;-1.928;2023-09-18T02:04:28;99882.09;;;17.78;100.00
45050;BME280;61798;48.048;-1.928;2023-09-18T02:06:35;99877.75;;;17.76;100.00
45050;BME280;61798;48.048;-1.928;2023-09-18T02:08:42;99856.31;;;17.70;100.00
45050;BME280;61798;48.048;-1.928;2023-09-18T02:10:49;99900.28;;;17.82;100.00
45050;BME280;61798;48.048;-1.928;2023-09-18T02:12:56;99876.31;;;17.63;100.00
45050;BME280;61798;48.048;-1.928;2023-09-18T02:15:03;99897.53;;;17.77;100.00
45050;BME280;61798;48.048;-1.928;2023-09-18T02:17:13;99896.19;;;17.74;100.00
45050;BME280;61798;48.048;-1.928;2023-09-18T02:19:20;99893.16;;;17.71;100.00
45050;BME280;61798;48.048;-1.928;2023-09-18T02:21:31;99874.94;;;17.61;100.00
45050;BME280;61798;48.048;-1.928;2023-09-18T02:23:39;99884.41;;;17.58;100.00
45050;BME280;61798;48.048;-1.928;2023-09-18T02:25:46;99873.97;;;17.39;100.00
45050;BME280;61798;48.048;-1.928;2023-09-18T02:27:54;99880.75;;;17.42;100.00
45050;BME280;61798;48.048;-1.928;2023-09-18T02:30:02;99890.38;;;17.60;100.00
45050;BME280;61798;48.048;-1.928;2023-09-18T02:32:09;99890.28;;;17.50;100.00
45050;BME280;61798;48.048;-1.928;2023-09-18T02:34:17;99865.53;;;17.36;100.00
45050;BME280;61798;48.048;-1.928;2023-09-18T02:36:26;99883.88;;;17.61;100.00
45050;BME280;61798;48.048;-1.928;2023-09-18T02:38:35;99886.03;;;17.59;100.00
45050;BME280;61798;48.048;-1.928;2023-09-18T02:40:43;99876.81;;;17.55;100.00
45050;BME280;61798;48.048;-1.928;2023-09-18T02:42:50;99870.97;;;17.41;100.00
45050;BME280;61798;48.048;-1.928;2023-09-18T02:44:57;99880.22;;;17.45;100.00
45050;BME280;61798;48.048;-1.928;2023-09-18T02:47:04;99867.47;;;17.40;100.00
45050;BME280;61798;48.048;-1.928;2023-09-18T02:49:12;99846.06;;;17.11;100.00
45050;BME280;61798;48.048;-1.928;2023-09-18T02:51:19;99879.94;;;17.13;100.00
45050;BME280;61798;48.048;-1.928;2023-09-18T02:53:26;99876.28;;;17.25;100.00
45050;BME280;61798;48.048;-1.928;2023-09-18T02:55:34;99885.88;;;17.10;100.00
45050;BME280;61798;48.048;-1.928;2023-09-18T02:57:40;99881.13;;;17.23;100.00
45050;BME280;61798;48.048;-1.928;2023-09-18T02:59:46;99873.25;;;17.21;100.00
45050;BME280;61798;48.048;-1.928;2023-09-18T03:01:53;99872.69;;;17.19;100.00
45050;BME280;61798;48.048;-1.928;2023-09-18T03:04:00;99861.75;;;17.09;100.00
45050;BME280;61798;48.048;-1.928;2023-09-18T03:06:07;99887.47;;;17.34;100.00
45050;BME280;61798;48.048;-1.928;2023-09-18T03:08:15;99885.03;;;17.38;100.00
45050;BME280;61798;48.048;-1.928;2023-09-18T03:10:24;99869.03;;;17.31;100.00
45050;BME280;61798;48.048;-1.928;2023-09-18T03:12:30;99873.88;;;17.29;100.00
45050;BME280;61798;48.048;-1.928;2023-09-18T03:14:38;99869.97;;;17.19;100.00
45050;BME280;61798;48.048;-1.928;2023-09-18T03:16:45;99890.72;;;17.36;100.00
45050;BME280;61798;48.048;-1.928;2023-09-18T03:18:52;99890.09;;;17.29;100.00
45050;BME280;61798;48.048;-1.928;2023-09-18T03:20:59;99891.81;;;17.40;100.00
45050;BME280;61798;48.048;-1.928;2023-09-18T03:23:06;99888.34;;;17.45;100.00
45050;BME280;61798;48.048;-1.928;2023-09-18T03:25:12;99892.94;;;17.44;100.00
45050;BME280;61798;48.048;-1.928;2023-09-18T03:27:19;99858.91;;;17.21;100.00
45050;BME280;61798;48.048;-1.928;2023-09-18T03:29:26;99860.75;;;17.15;100.00
45050;BME280;61798;48.048;-1.928;2023-09-18T03:31:33;99883.03;;;17.22;100.00
45050;BME280;61798;48.048;-1.928;2023-09-18T03:33:40;99881.38;;;17.21;100.00
45050;BME280;61798;48.048;-1.928;2023-09-18T03:35:49;99880.88;;;17.25;100.00
45050;BME280;61798;48.048;-1.928;2023-09-18T03:37:56;99875.34;;;17.14;100.00
45050;BME280;61798;48.048;-1.928;2023-09-18T03:40:02;99885.66;;;17.17;100.00
45050;BME280;61798;48.048;-1.928;2023-09-18T03:42:10;99888.09;;;17.19;100.00
45050;BME280;61798;48.048;-1.928;2023-09-18T03:44:17;99880.97;;;17.07;100.00
45050;BME280;61798;48.048;-1.928;2023-09-18T03:46:24;99874.75;;;17.12;100.00
45050;BME280;61798;48.048;-1.928;2023-09-18T03:48:32;99859.91;;;16.87;100.00
45050;BME280;61798;48.048;-1.928;2023-09-18T03:50:44;99872.94;;;16.90;100.00
45050;BME280;61798;48.048;-1.928;2023-09-18T03:52:51;99877.00;;;16.92;100.00
45050;BME280;61798;48.048;-1.928;2023-09-18T03:54:58;99881.28;;;17.11;100.00
45050;BME280;61798;48.048;-1.928;2023-09-18T03:57:04;99886.38;;;16.79;100.00
45050;BME280;61798;48.048;-1.928;2023-09-18T03:59:12;99881.06;;;16.90;100.00
45050;BME280;61798;48.048;-1.928;2023-09-18T04:01:19;99867.44;;;16.79;100.00
45050;BME280;61798;48.048;-1.928;2023-09-18T04:03:27;99883.47;;;16.86;100.00
45050;BME280;61798;48.048;-1.928;2023-09-18T04:05:34;99868.28;;;16.85;100.00
45050;BME280;61798;48.048;-1.928;2023-09-18T04:07:41;99893.56;;;16.96;100.00
45050;BME280;61798;48.048;-1.928;2023-09-18T04:09:52;99860.88;;;16.75;100.00
45050;BME280;61798;48.048;-1.928;2023-09-18T04:12:01;99891.50;;;17.04;100.00
45050;BME280;61798;48.048;-1.928;2023-09-18T04:14:08;99895.03;;;17.09;100.00
45050;BME280;61798;48.048;-1.928;2023-09-18T04:16:14;99902.34;;;17.09;100.00
45050;BME280;61798;48.048;-1.928;2023-09-18T04:18:23;99899.53;;;16.98;100.00
45050;BME280;61798;48.048;-1.928;2023-09-18T04:20:32;99883.81;;;16.95;100.00
45050;BME280;61798;48.048;-1.928;2023-09-18T04:22:45;99896.09;;;17.03;100.00
45050;BME280;61798;48.048;-1.928;2023-09-18T04:24:56;99874.00;;;16.89;100.00
45050;BME280;61798;48.048;-1.928;2023-09-18T04:27:03;99886.25;;;16.97;100.00
45050;BME280;61798;48.048;-1.928;2023-09-18T04:29:10;99875.56;;;16.85;100.00
45050;BME280;61798;48.048;-1.928;2023-09-18T04:31:17;99897.38;;;17.00;100.00
45050;BME280;61798;48.048;-1.928;2023-09-18T04:33:23;99888.19;;;17.01;100.00
45050;BME280;61798;48.048;-1.928;2023-09-18T04:35:30;99855.34;;;16.87;100.00
45050;BME280;61798;48.048;-1.928;2023-09-18T04:37:38;99866.31;;;17.03;100.00
45050;BME280;61798;48.048;-1.928;2023-09-18T04:39:45;99869.72;;;16.93;100.00
45050;BME280;61798;48.048;-1.928;2023-09-18T04:41:53;99877.97;;;17.04;100.00
45050;BME280;61798;48.048;-1.928;2023-09-18T04:44:00;99865.34;;;16.87;100.00
45050;BME280;61798;48.048;-1.928;2023-09-18T04:46:07;99870.44;;;16.83;100.00
45050;BME280;61798;48.048;-1.928;2023-09-18T04:48:14;99853.06;;;16.79;100.00
45050;BME280;61798;48.048;-1.928;2023-09-18T04:50:21;99858.72;;;16.77;100.00
45050;BME280;61798;48.048;-1.928;2023-09-18T04:52:28;99854.38;;;16.76;100.00
45050;BME280;61798;48.048;-1.928;2023-09-18T04:54:34;99856.53;;;16.74;100.00
45050;BME280;61798;48.048;-1.928;2023-09-18T04:56:40;99833.16;;;16.63;100.00
45050;BME280;61798;48.048;-1.928;2023-09-18T04:58:45;99859.09;;;16.86;100.00
45050;BME280;61798;48.048;-1.928;2023-09-18T05:00:59;99859.72;;;16.94;100.00
45050;BME280;61798;48.048;-1.928;2023-09-18T05:03:05;99835.09;;;16.67;100.00
45050;BME280;61798;48.048;-1.928;2023-09-18T05:05:11;99851.69;;;16.76;100.00
45050;BME280;61798;48.048;-1.928;2023-09-18T05:07:17;99864.22;;;16.83;100.00
45050;BME280;61798;48.048;-1.928;2023-09-18T05:09:23;99856.94;;;16.88;100.00
45050;BME280;61798;48.048;-1.928;2023-09-18T05:11:29;99862.13;;;16.90;100.00
45050;BME280;61798;48.048;-1.928;2023-09-18T05:13:37;99857.25;;;16.92;100.00
45050;BME280;61798;48.048;-1.928;2023-09-18T05:15:44;99826.94;;;16.62;100.00
45050;BME280;61798;48.048;-1.928;2023-09-18T05:17:50;99861.28;;;16.89;100.00
45050;BME280;61798;48.048;-1.928;2023-09-18T05:20:04;99859.03;;;16.81;100.00
45050;BME280;61798;48.048;-1.928;2023-09-18T05:22:10;99860.38;;;16.78;100.00
45050;BME280;61798;48.048;-1.928;2023-09-18T05:24:18;99858.78;;;16.83;100.00
45050;BME280;61798;48.048;-1.928;2023-09-18T05:26:33;99857.75;;;16.61;100.00
45050;BME280;61798;48.048;-1.928;2023-09-18T05:28:40;99843.72;;;16.64;100.00
45050;BME280;61798;48.048;-1.928;2023-09-18T05:30:46;99854.06;;;16.73;100.00
45050;BME280;61798;48.048;-1.928;2023-09-18T05:32:52;99858.13;;;16.70;100.00
45050;BME280;61798;48.048;-1.928;2023-09-18T05:34:59;99852.78;;;16.75;100.00
45050;BME280;61798;48.048;-1.928;2023-09-18T05:37:11;99861.56;;;16.88;100.00
45050;BME280;61798;48.048;-1.928;2023-09-18T05:39:19;99828.38;;;16.70;100.00
45050;BME280;61798;48.048;-1.928;2023-09-18T05:41:26;99860.00;;;16.97;100.00
45050;BME280;61798;48.048;-1.928;2023-09-18T05:43:35;99853.13;;;16.84;100.00
45050;BME280;61798;48.048;-1.928;2023-09-18T05:45:43;99859.41;;;16.90;100.00
45050;BME280;61798;48.048;-1.928;2023-09-18T05:47:51;99857.22;;;16.87;100.00
45050;BME280;61798;48.048;-1.928;2023-09-18T05:50:00;99857.81;;;16.94;100.00
45050;BME280;61798;48.048;-1.928;2023-09-18T05:52:06;99854.75;;;16.85;100.00
45050;BME280;61798;48.048;-1.928;2023-09-18T05:54:11;99844.75;;;16.86;100.00
45050;BME280;61798;48.048;-1.928;2023-09-18T05:56:17;99860.28;;;16.96;100.00
45050;BME280;61798;48.048;-1.928;2023-09-18T05:58:23;99840.81;;;16.71;100.00
45050;BME280;61798;48.048;-1.928;2023-09-18T06:00:31;99853.91;;;16.79;100.00
45050;BME280;61798;48.048;-1.928;2023-09-18T06:02:37;99865.63;;;16.90;100.00
45050;BME280;61798;48.048;-1.928;2023-09-18T06:04:43;99884.38;;;16.97;100.00
45050;BME280;61798;48.048;-1.928;2023-09-18T06:06:49;99880.84;;;16.97;100.00
45050;BME280;61798;48.048;-1.928;2023-09-18T06:08:54;99859.63;;;16.83;100.00
45050;BME280;61798;48.048;-1.928;2023-09-18T06:11:00;99899.25;;;16.95;100.00
45050;BME280;61798;48.048;-1.928;2023-09-18T06:13:06;99871.75;;;16.80;100.00
45050;BME280;61798;48.048;-1.928;2023-09-18T06:15:13;99897.28;;;16.90;100.00
45050;BME280;61798;48.048;-1.928;2023-09-18T06:17:18;99881.56;;;16.87;100.00
45050;BME280;61798;48.048;-1.928;2023-09-18T06:19:24;99864.06;;;16.72;100.00
45050;BME280;61798;48.048;-1.928;2023-09-18T06:21:30;99885.94;;;16.93;100.00
45050;BME280;61798;48.048;-1.928;2023-09-18T06:23:36;99895.19;;;16.97;100.00
45050;BME280;61798;48.048;-1.928;2023-09-18T06:25:43;99907.09;;;16.96;100.00
45050;BME280;61798;48.048;-1.928;2023-09-18T06:27:49;99899.25;;;16.95;100.00
45050;BME280;61798;48.048;-1.928;2023-09-18T06:29:54;99904.97;;;16.98;100.00
45050;BME280;61798;48.048;-1.928;2023-09-18T06:32:00;99885.75;;;17.00;100.00
45050;BME280;61798;48.048;-1.928;2023-09-18T06:34:06;99912.09;;;17.10;100.00
45050;BME280;61798;48.048;-1.928;2023-09-18T06:36:13;99921.19;;;17.21;100.00
45050;BME280;61798;48.048;-1.928;2023-09-18T06:38:19;99921.19;;;17.21;100.00
45050;BME280;61798;48.048;-1.928;2023-09-18T06:40:25;99894.44;;;17.02;100.00
45050;BME280;61798;48.048;-1.928;2023-09-18T06:42:32;99936.13;;;17.29;100.00
45050;BME280;61798;48.048;-1.928;2023-09-18T06:44:38;99906.69;;;17.10;100.00
45050;BME280;61798;48.048;-1.928;2023-09-18T06:46:43;99933.72;;;17.27;100.00
45050;BME280;61798;48.048;-1.928;2023-09-18T06:48:49;99924.91;;;17.20;100.00
45050;BME280;61798;48.048;-1.928;2023-09-18T06:50:57;99945.66;;;17.31;100.00
45050;BME280;61798;48.048;-1.928;2023-09-18T06:53:03;99928.47;;;17.20;100.00
45050;BME280;61798;48.048;-1.928;2023-09-18T06:55:09;99951.09;;;17.37;100.00
45050;BME280;61798;48.048;-1.928;2023-09-18T06:57:14;99944.38;;;17.39;100.00
45050;BME280;61798;48.048;-1.928;2023-09-18T06:59:20;99957.44;;;17.48;100.00
45050;BME280;61798;48.048;-1.928;2023-09-18T07:01:26;99919.88;;;17.29;100.00
45050;BME280;61798;48.048;-1.928;2023-09-18T07:03:33;99919.06;;;17.28;100.00
45050;BME280;61798;48.048;-1.928;2023-09-18T07:05:41;99946.56;;;17.42;100.00
45050;BME280;61798;48.048;-1.928;2023-09-18T07:07:47;99930.22;;;17.32;100.00
45050;BME280;61798;48.048;-1.928;2023-09-18T07:09:53;99956.34;;;17.43;100.00
45050;BME280;61798;48.048;-1.928;2023-09-18T07:11:59;99957.50;;;17.53;100.00
45050;BME280;61798;48.048;-1.928;2023-09-18T07:14:05;99947.69;;;17.47;100.00
45050;BME280;61798;48.048;-1.928;2023-09-18T07:16:12;99954.19;;;17.46;100.00
45050;BME280;61798;48.048;-1.928;2023-09-18T07:18:18;99956.66;;;17.52;100.00
45050;BME280;61798;48.048;-1.928;2023-09-18T07:20:24;99950.13;;;17.48;100.00
45050;BME280;61798;48.048;-1.928;2023-09-18T07:22:30;99960.56;;;17.62;100.00
45050;BME280;61798;48.048;-1.928;2023-09-18T07:24:36;99961.31;;;17.57;100.00
45050;BME280;61798;48.048;-1.928;2023-09-18T07:26:47;99965.72;;;17.63;100.00
45050;BME280;61798;48.048;-1.928;2023-09-18T07:28:53;99961.91;;;17.59;100.00
45050;BME280;61798;48.048;-1.928;2023-09-18T07:31:06;99976.59;;;17.69;100.00
45050;BME280;61798;48.048;-1.928;2023-09-18T07:33:13;99972.81;;;17.70;100.00
45050;BME280;61798;48.048;-1.928;2023-09-18T07:35:21;99976.06;;;17.72;100.00
45050;BME280;61798;48.048;-1.928;2023-09-18T07:37:28;99982.31;;;17.72;100.00
45050;BME280;61798;48.048;-1.928;2023-09-18T07:39:34;99969.34;;;17.74;100.00
45050;BME280;61798;48.048;-1.928;2023-09-18T07:41:40;99983.72;;;17.80;100.00
45050;BME280;61798;48.048;-1.928;2023-09-18T07:43:46;99970.94;;;17.75;100.00
45050;BME280;61798;48.048;-1.928;2023-09-18T07:45:53;99995.97;;;17.83;100.00
45050;BME280;61798;48.048;-1.928;2023-09-18T07:47:59;99973.94;;;17.74;100.00
45050;BME280;61798;48.048;-1.928;2023-09-18T07:50:05;99983.53;;;17.87;100.00
45050;BME280;61798;48.048;-1.928;2023-09-18T07:52:12;99990.66;;;17.99;100.00
45050;BME280;61798;48.048;-1.928;2023-09-18T07:54:18;99982.19;;;17.90;100.00
45050;BME280;61798;48.048;-1.928;2023-09-18T07:56:24;99984.97;;;18.00;100.00
45050;BME280;61798;48.048;-1.928;2023-09-18T07:58:30;99979.00;;;17.98;100.00
45050;BME280;61798;48.048;-1.928;2023-09-18T08:00:36;99978.19;;;17.97;100.00
45050;BME280;61798;48.048;-1.928;2023-09-18T08:02:41;99985.56;;;18.07;100.00
45050;BME280;61798;48.048;-1.928;2023-09-18T08:04:47;99995.50;;;18.30;100.00
45050;BME280;61798;48.048;-1.928;2023-09-18T08:06:53;99983.47;;;18.20;100.00
45050;BME280;61798;48.048;-1.928;2023-09-18T08:09:00;99976.44;;;18.19;100.00
45050;BME280;61798;48.048;-1.928;2023-09-18T08:11:09;99985.72;;;18.28;100.00
45050;BME280;61798;48.048;-1.928;2023-09-18T08:13:15;99996.09;;;18.37;100.00
45050;BME280;61798;48.048;-1.928;2023-09-18T08:15:22;99997.75;;;18.38;100.00
45050;BME280;61798;48.048;-1.928;2023-09-18T08:17:28;100001.00;;;18.40;100.00
45050;BME280;61798;48.048;-1.928;2023-09-18T08:19:34;99967.81;;;18.27;100.00
45050;BME280;61798;48.048;-1.928;2023-09-18T08:21:41;100002.19;;;18.55;100.00
45050;BME280;61798;48.048;-1.928;2023-09-18T08:23:47;100004.13;;;18.65;100.00
45050;BME280;61798;48.048;-1.928;2023-09-18T08:25:52;100012.78;;;18.62;100.00
45050;BME280;61798;48.048;-1.928;2023-09-18T08:28:03;100009.00;;;18.63;100.00
45050;BME280;61798;48.048;-1.928;2023-09-18T08:30:11;99990.50;;;18.54;100.00
45050;BME280;61798;48.048;-1.928;2023-09-18T08:32:17;99997.53;;;18.55;100.00
45050;BME280;61798;48.048;-1.928;2023-09-18T08:34:23;100012.00;;;18.66;100.00
45050;BME280;61798;48.048;-1.928;2023-09-18T08:36:29;100014.47;;;18.73;100.00
45050;BME280;61798;48.048;-1.928;2023-09-18T08:38:36;100009.88;;;18.74;100.00
45050;BME280;61798;48.048;-1.928;2023-09-18T08:40:48;99993.06;;;18.77;100.00
45050;BME280;61798;48.048;-1.928;2023-09-18T08:42:56;100007.22;;;18.89;100.00
45050;BME280;61798;48.048;-1.928;2023-09-18T08:45:09;99996.38;;;19.00;100.00
45050;BME280;61798;48.048;-1.928;2023-09-18T08:47:18;99990.72;;;19.07;100.00
45050;BME280;61798;48.048;-1.928;2023-09-18T08:49:27;99992.06;;;19.04;100.00
45050;BME280;61798;48.048;-1.928;2023-09-18T08:51:35;99976.28;;;18.90;100.00
45050;BME280;61798;48.048;-1.928;2023-09-18T08:53:59;99982.25;;;18.92;100.00
45050;BME280;61798;48.048;-1.928;2023-09-18T08:56:07;99996.09;;;18.96;100.00
45050;BME280;61798;48.048;-1.928;2023-09-18T08:58:15;99974.09;;;18.87;100.00
45050;BME280;61798;48.048;-1.928;2023-09-18T09:00:29;99932.22;;;18.62;100.00
45050;BME280;61798;48.048;-1.928;2023-09-18T09:02:38;99977.03;;;18.80;100.00
45050;BME280;61798;48.048;-1.928;2023-09-18T09:04:44;99966.75;;;18.83;100.00
45050;BME280;61798;48.048;-1.928;2023-09-18T09:06:50;99966.47;;;18.84;100.00
45050;BME280;61798;48.048;-1.928;2023-09-18T09:08:56;99986.88;;;18.97;100.00
45050;BME280;61798;48.048;-1.928;2023-09-18T09:11:03;99992.63;;;19.06;100.00
45050;BME280;61798;48.048;-1.928;2023-09-18T09:17:48;99977.38;;;18.89;100.00
45050;BME280;61798;48.048;-1.928;2023-09-18T09:20:12;99983.84;;;18.83;100.00
45050;BME280;61798;48.048;-1.928;2023-09-18T09:22:24;99976.25;;;18.85;100.00
45050;BME280;61798;48.048;-1.928;2023-09-18T09:24:46;99962.38;;;18.76;100.00
45050;BME280;61798;48.048;-1.928;2023-09-18T09:27:05;100020.56;;;19.01;100.00
45050;BME280;61798;48.048;-1.928;2023-09-18T09:29:20;100000.69;;;18.85;100.00
45050;BME280;61798;48.048;-1.928;2023-09-18T09:31:37;99967.56;;;18.78;100.00
45050;BME280;61798;48.048;-1.928;2023-09-18T09:33:51;100014.59;;;19.05;100.00
45050;BME280;61798;48.048;-1.928;2023-09-18T09:36:04;99962.13;;;18.78;100.00
45050;BME280;61798;48.048;-1.928;2023-09-18T09:38:16;99954.50;;;18.75;100.00
45050;BME280;61798;48.048;-1.928;2023-09-18T09:40:29;99982.88;;;19.10;100.00
45050;BME280;61798;48.048;-1.928;2023-09-18T09:42:44;99989.59;;;18.97;100.00
45050;BME280;61798;48.048;-1.928;2023-09-18T09:45:17;99977.38;;;18.95;100.00
45050;BME280;61798;48.048;-1.928;2023-09-18T09:47:28;100025.22;;;19.06;100.00
45050;BME280;61798;48.048;-1.928;2023-09-18T09:49:47;100016.25;;;19.06;100.00
45050;BME280;61798;48.048;-1.928;2023-09-18T09:51:53;100022.03;;;19.25;100.00
45050;BME280;61798;48.048;-1.928;2023-09-18T09:54:00;100004.88;;;19.14;100.00
45050;BME280;61798;48.048;-1.928;2023-09-18T09:56:06;100020.41;;;19.29;100.00
45050;BME280;61798;48.048;-1.928;2023-09-18T09:58:12;100022.06;;;19.41;100.00
45050;BME280;61798;48.048;-1.928;2023-09-18T10:00:19;100023.41;;;19.33;100.00
45050;BME280;61798;48.048;-1.928;2023-09-18T10:02:49;100020.16;;;19.36;100.00
45050;BME280;61798;48.048;-1.928;2023-09-18T10:04:55;100038.13;;;19.48;100.00
45050;BME280;61798;48.048;-1.928;2023-09-18T10:07:10;100026.69;;;19.30;100.00
45050;BME280;61798;48.048;-1.928;2023-09-18T10:09:19;100028.00;;;19.27;100.00
45050;BME280;61798;48.048;-1.928;2023-09-18T10:11:26;100023.69;;;19.26;100.00
45050;BME280;61798;48.048;-1.928;2023-09-18T10:13:41;100040.53;;;19.39;100.00
45050;BME280;61798;48.048;-1.928;2023-09-18T10:15:50;100039.97;;;19.31;100.00
45050;BME280;61798;48.048;-1.928;2023-09-18T10:17:59;100037.53;;;19.30;100.00
45050;BME280;61798;48.048;-1.928;2023-09-18T10:20:08;100040.53;;;19.33;100.00
45050;BME280;61798;48.048;-1.928;2023-09-18T10:22:21;100045.97;;;19.39;100.00
45050;BME280;61798;48.048;-1.928;2023-09-18T10:24:34;100040.53;;;19.39;100.00
45050;BME280;61798;48.048;-1.928;2023-09-18T10:26:56;100047.06;;;19.38;100.00
45050;BME280;61798;48.048;-1.928;2023-09-18T10:29:03;100051.94;;;19.36;100.00
45050;BME280;61798;48.048;-1.928;2023-09-18T10:31:12;100049.53;;;19.44;100.00
45050;BME280;61798;48.048;-1.928;2023-09-18T10:33:19;100054.97;;;19.55;100.00
45050;BME280;61798;48.048;-1.928;2023-09-18T10:35:25;100058.28;;;19.73;100.00
45050;BME280;61798;48.048;-1.928;2023-09-18T10:37:33;100049.03;;;19.69;100.00
45050;BME280;61798;48.048;-1.928;2023-09-18T10:39:42;100066.69;;;19.71;100.00
45050;BME280;61798;48.048;-1.928;2023-09-18T10:41:57;100057.44;;;19.67;100.00
45050;BME280;61798;48.048;-1.928;2023-09-18T10:44:12;100046.50;;;19.36;100.00
45050;BME280;61798;48.048;-1.928;2023-09-18T10:46:27;100018.72;;;19.12;100.00
45050;BME280;61798;48.048;-1.928;2023-09-18T10:48:36;100045.41;;;19.31;100.00
45050;BME280;61798;48.048;-1.928;2023-09-18T10:50:55;100058.19;;;19.36;100.00
45050;BME280;61798;48.048;-1.928;2023-09-18T10:53:18;100020.88;;;19.16;100.00
45050;BME280;61798;48.048;-1.928;2023-09-18T10:55:45;100024.78;;;19.30;100.00
45050;BME280;61798;48.048;-1.928;2023-09-18T10:58:04;100015.25;;;19.33;100.00
45050;BME280;61798;48.048;-1.928;2023-09-18T11:00:19;100022.94;;;19.62;100.00
45050;BME280;61798;48.048;-1.928;2023-09-18T11:02:30;100055.03;;;19.97;100.00
45050;BME280;61798;48.048;-1.928;2023-09-18T11:04:44;100025.13;;;19.92;100.00